Bravado — 9HA2554 — position and weather

sailwx.info

Track history (hours):
 
Tides and Currents Weather Stations Pressure Air Temp Water Temp Dewpoint Dewpoint Depression Visibility Wind Speed Wind Dir Waves Ship Positions

Bravado

Last reported at 2018-Jun-21 20:06 UTC. Time now 2018-Jun-24 01:37 UTC.
Position N 43°16' E 006°38'.

Length 45 m; draft 2.8 m.

Type: Pleasure craft. MMSI: 248871000.

Date/timePositionNaut miles runAvg speedWind from/ knotsBaromVisibWave heightAir tempDewpointWater temp
2018-Jun-21 20:06N 43°16' E 006°38'0 0.1
2018-Jun-21 20:00N 43°16' E 006°38'0 0.0
2018-Jun-21 19:30N 43°16' E 006°38'5 0.9
2018-Jun-21 14:11N 43°20' E 006°43'210.2
2018-Jun-21 14:00N 43°21' E 006°45'510.3
2018-Jun-21 13:30N 43°23' E 006°51'510.6
2018-Jun-21 13:00N 43°27' E 006°56'510.1
2018-Jun-21 12:30N 43°31' E 007°00'1 2.5
2018-Jun-21 11:58N 43°33' E 007°01'0 0.0
2018-Jun-21 11:28N 43°33' E 007°01'0 0.0
2018-Jun-21 10:58N 43°33' E 007°01'0 0.0
2018-Jun-21 10:28N 43°33' E 007°01'0 0.0
2018-Jun-21 09:55N 43°33' E 007°01'0 0.0
2018-Jun-21 09:28N 43°33' E 007°01'0 0.0
2018-Jun-21 08:58N 43°33' E 007°01'0 0.0
2018-Jun-21 08:28N 43°33' E 007°01'0 0.0
2018-Jun-21 07:58N 43°33' E 007°01'0 0.0
2018-Jun-21 07:28N 43°33' E 007°01'0 0.0
2018-Jun-21 06:58N 43°33' E 007°01'0 0.1
2018-Jun-21 06:28N 43°33' E 007°01'0 0.0
2018-Jun-21 05:58N 43°33' E 007°01'0 0.0
2018-Jun-21 05:28N 43°33' E 007°01'0 0.0
2018-Jun-21 05:01N 43°33' E 007°01'0 0.0
2018-Jun-21 04:30N 43°33' E 007°01'0 0.0
2018-Jun-21 04:00N 43°33' E 007°01'0 0.0
2018-Jun-21 03:30N 43°33' E 007°01'0 0.0
2018-Jun-21 03:00N 43°33' E 007°01'0 0.0
2018-Jun-21 02:30N 43°33' E 007°01'0 0.0
2018-Jun-21 02:00N 43°33' E 007°01'0 0.0
2018-Jun-21 01:27N 43°33' E 007°01'0 0.0
2018-Jun-21 01:00N 43°33' E 007°01'0 0.0
2018-Jun-21 00:30N 43°33' E 007°01'0 0.0
2018-Jun-21 00:00N 43°33' E 007°01'0 0.0
2018-Jun-20 23:30N 43°33' E 007°01'0 0.0
2018-Jun-20 23:00N 43°33' E 007°01'0 0.0
2018-Jun-20 22:30N 43°33' E 007°01'0 0.0
2018-Jun-20 22:00N 43°33' E 007°01'0 0.0
2018-Jun-20 21:30N 43°33' E 007°01'0 0.0
2018-Jun-20 21:00N 43°33' E 007°01'0 0.0
2018-Jun-20 20:30N 43°33' E 007°01'0 0.0
2018-Jun-20 20:00N 43°33' E 007°01'0 0.0
2018-Jun-20 19:24N 43°33' E 007°01'0 0.0
2018-Jun-20 18:48N 43°33' E 007°01'0 0.0
2018-Jun-20 18:21N 43°33' E 007°01'0 0.0
2018-Jun-20 18:00N 43°33' E 007°01'0 0.0
2018-Jun-20 17:30N 43°33' E 007°01'2 3.2
2018-Jun-20 17:00N 43°32' E 007°03'0 0.1
2018-Jun-20 16:29N 43°32' E 007°03'0 0.0
2018-Jun-20 15:59N 43°32' E 007°03'0 0.0
2018-Jun-20 15:29N 43°32' E 007°03'0 0.0
2018-Jun-20 14:56N 43°32' E 007°03'0 0.0
2018-Jun-20 14:23N 43°32' E 007°03'0 0.0
2018-Jun-20 13:59N 43°32' E 007°03'0 0.0
2018-Jun-20 13:26N 43°32' E 007°03'0 0.1
2018-Jun-20 12:53N 43°32' E 007°03'0 0.0
2018-Jun-20 12:20N 43°32' E 007°03'0 0.0
2018-Jun-20 12:00N 43°32' E 007°03'3 6.0
2018-Jun-20 11:30N 43°32' E 007°07'510.4
2018-Jun-20 11:00N 43°36' E 007°12'7 0.3
2018-Jun-19 11:09N 43°40' E 007°19'511.1
2018-Jun-19 10:41N 43°38' E 007°12'211.0
2018-Jun-19 10:30N 43°36' E 007°10'2 0.1
2018-Jun-18 15:33N 43°35' E 007°08'0 3.8
2018-Jun-18 15:25N 43°36' E 007°08'410.6
2018-Jun-18 15:00N 43°38' E 007°13'6 0.3
2018-Jun-17 17:20N 43°42' E 007°19'0 0.2
2018-Jun-17 17:00N 43°42' E 007°19'3 6.3
2018-Jun-17 16:30N 43°39' E 007°17'510.8
2018-Jun-17 16:00N 43°35' E 007°12'510.6
2018-Jun-17 15:30N 43°31' E 007°07'5 9.7
2018-Jun-17 15:00N 43°30' E 007°00'3 5.4
2018-Jun-17 14:30N 43°31' E 006°57'0 0.0
2018-Jun-17 14:00N 43°31' E 006°57'2 3.4
2018-Jun-17 13:30N 43°30' E 006°58'510.4
2018-Jun-17 13:00N 43°25' E 006°54'510.6
2018-Jun-17 12:30N 43°22' E 006°49'510.4
2018-Jun-17 12:00N 43°19' E 006°43'5 9.3
2018-Jun-17 11:31N 43°16' E 006°38'0 0.1
2018-Jun-17 11:00N 43°16' E 006°38'0 0.0
2018-Jun-17 10:29N 43°16' E 006°38'0 0.0
2018-Jun-17 10:00N 43°16' E 006°38'0 0.0
2018-Jun-17 09:30N 43°16' E 006°38'0 0.1
2018-Jun-17 08:55N 43°16' E 006°38'0 0.1
2018-Jun-17 08:07N 43°16' E 006°38'0 0.0
2018-Jun-17 08:00N 43°16' E 006°38'0 0.0
2018-Jun-17 03:28N 43°16' E 006°38'0 0.1
2018-Jun-17 02:58N 43°16' E 006°38'10 1.2
2018-Jun-16 18:29N 43°22' E 006°49'511.3
2018-Jun-16 18:00N 43°25' E 006°55'511.0
2018-Jun-16 17:30N 43°30' E 006°59'3 5.7
2018-Jun-16 17:00N 43°32' E 007°02'0 0.0
2018-Jun-16 16:30N 43°32' E 007°02'0 0.0
2018-Jun-16 16:00N 43°32' E 007°02'0 0.0
2018-Jun-16 15:30N 43°32' E 007°02'0 0.0
2018-Jun-16 15:00N 43°32' E 007°02'0 0.0
2018-Jun-16 14:30N 43°32' E 007°02'0 0.0
2018-Jun-16 14:00N 43°32' E 007°02'0 0.0
2018-Jun-16 13:30N 43°32' E 007°02'1 1.2
2018-Jun-16 12:59N 43°32' E 007°01'0 0.6
2018-Jun-16 12:29N 43°32' E 007°01'0 0.2
2018-Jun-16 11:57N 43°32' E 007°01'0 0.9
2018-Jun-16 11:31N 43°32' E 007°01'1 1.2
2018-Jun-16 10:55N 43°33' E 007°01'0 0.0
2018-Jun-16 10:28N 43°33' E 007°01'0 0.0
2018-Jun-16 09:55N 43°33' E 007°01'0 0.0
2018-Jun-16 09:25N 43°33' E 007°01'0 0.0
2018-Jun-16 08:55N 43°33' E 007°01'0 0.0
2018-Jun-16 08:25N 43°33' E 007°01'0 0.0
2018-Jun-16 07:58N 43°33' E 007°01'0 0.1
2018-Jun-16 07:28N 43°33' E 007°01'0 0.0
2018-Jun-16 06:58N 43°33' E 007°01'0 0.0
2018-Jun-16 06:28N 43°33' E 007°01'0 0.0
2018-Jun-16 05:58N 43°33' E 007°01'0 0.0
2018-Jun-16 05:28N 43°33' E 007°01'0 0.0
2018-Jun-16 04:58N 43°33' E 007°01'0 0.0
2018-Jun-16 04:28N 43°33' E 007°01'0 0.0
2018-Jun-16 03:58N 43°33' E 007°01'0 0.0
2018-Jun-16 03:28N 43°33' E 007°01'0 0.0
2018-Jun-16 02:58N 43°33' E 007°01'0 0.0
2018-Jun-16 02:28N 43°33' E 007°01'0 0.0
2018-Jun-16 01:58N 43°33' E 007°01'0 0.0
2018-Jun-16 01:28N 43°33' E 007°01'0 0.0
2018-Jun-16 00:58N 43°33' E 007°01'0 0.0
2018-Jun-16 00:28N 43°33' E 007°01'0 0.0
2018-Jun-15 23:58N 43°33' E 007°01'0 0.0
2018-Jun-15 23:28N 43°33' E 007°01'0 0.0
2018-Jun-15 22:58N 43°33' E 007°01'0 0.0
2018-Jun-15 22:28N 43°33' E 007°01'0 0.0
2018-Jun-15 21:58N 43°33' E 007°01'0 0.0
2018-Jun-15 21:28N 43°33' E 007°01'0 0.0
2018-Jun-15 20:58N 43°33' E 007°01'0 0.0
2018-Jun-15 20:28N 43°33' E 007°01'0 0.0
2018-Jun-15 19:58N 43°33' E 007°01'0 0.0
2018-Jun-15 19:22N 43°33' E 007°01'0 0.0
2018-Jun-15 18:49N 43°33' E 007°01'0 0.0
2018-Jun-15 18:28N 43°33' E 007°01'0 0.0
2018-Jun-15 17:58N 43°33' E 007°01'0 0.0
2018-Jun-15 17:22N 43°33' E 007°01'0 0.0
2018-Jun-15 16:55N 43°33' E 007°01'0 0.0
2018-Jun-15 16:28N 43°33' E 007°01'0 0.0
2018-Jun-15 15:58N 43°33' E 007°01'0 0.0
2018-Jun-15 15:28N 43°33' E 007°01'0 0.0
2018-Jun-15 14:58N 43°33' E 007°01'0 0.0
2018-Jun-15 14:28N 43°33' E 007°01'0 0.0
2018-Jun-15 13:52N 43°33' E 007°01'0 0.0
2018-Jun-15 13:28N 43°33' E 007°01'0 0.0
2018-Jun-15 12:55N 43°33' E 007°01'0 0.0
2018-Jun-15 12:22N 43°33' E 007°01'0 0.0
2018-Jun-15 11:52N 43°33' E 007°01'0 0.0
2018-Jun-15 11:25N 43°33' E 007°01'0 0.2
2018-Jun-15 11:00N 43°33' E 007°01'0 0.0
2018-Jun-15 10:30N 43°33' E 007°01'0 0.0
2018-Jun-15 10:00N 43°33' E 007°01'0 0.0
2018-Jun-15 09:30N 43°33' E 007°01'0 0.0
2018-Jun-15 09:00N 43°33' E 007°01'0 0.0
2018-Jun-15 08:30N 43°33' E 007°01'0 0.0
2018-Jun-15 08:00N 43°33' E 007°01'0 0.0
2018-Jun-15 07:30N 43°33' E 007°01'0 0.0
2018-Jun-15 06:59N 43°33' E 007°01'0 0.0
2018-Jun-15 06:30N 43°33' E 007°01'0 0.0
2018-Jun-15 06:00N 43°33' E 007°01'0 0.1
2018-Jun-15 05:30N 43°33' E 007°01'0 0.0
2018-Jun-15 05:00N 43°33' E 007°01'0 0.0
2018-Jun-15 04:30N 43°33' E 007°01'0 0.0
2018-Jun-15 04:00N 43°33' E 007°01'0 0.0
2018-Jun-15 03:30N 43°33' E 007°01'0 0.0
2018-Jun-15 03:00N 43°33' E 007°01'0 0.0
2018-Jun-15 02:30N 43°33' E 007°01'0 0.0
2018-Jun-15 02:00N 43°33' E 007°01'0 0.0
2018-Jun-15 01:30N 43°33' E 007°01'0 0.0
2018-Jun-15 01:00N 43°33' E 007°01'0 0.0
2018-Jun-15 00:30N 43°33' E 007°01'0 0.0
2018-Jun-15 00:00N 43°33' E 007°01'0 0.0
2018-Jun-14 23:30N 43°33' E 007°01'0 0.0
2018-Jun-14 23:00N 43°33' E 007°01'0 0.0
2018-Jun-14 22:30N 43°33' E 007°01'0 0.0
2018-Jun-14 22:00N 43°33' E 007°01'0 0.0
2018-Jun-14 21:30N 43°33' E 007°01'0 0.0
2018-Jun-14 21:00N 43°33' E 007°01'0 0.0
2018-Jun-14 20:30N 43°33' E 007°01'0 0.0
2018-Jun-14 20:00N 43°33' E 007°01'0 0.0
2018-Jun-14 19:30N 43°33' E 007°01'0 0.2
2018-Jun-14 19:01N 43°33' E 007°01'3 6.7
2018-Jun-14 18:30N 43°29' E 007°03'510.6
2018-Jun-14 18:00N 43°32' E 007°09'611.0
2018-Jun-14 17:29N 43°36' E 007°15'5 0.1
2018-Jun-13 02:39N 43°39' E 007°20'210.6
2018-Jun-13 02:26N 43°37' E 007°18'410.3
2018-Jun-13 02:00N 43°35' E 007°13'510.5
2018-Jun-13 01:30N 43°31' E 007°08'510.7
2018-Jun-13 01:00N 43°28' E 007°02'4 0.3
2018-Jun-12 11:28N 43°28' E 006°57'510.5
2018-Jun-12 11:00N 43°32' E 007°00'1 2.8
2018-Jun-12 10:30N 43°33' E 007°01'0 0.0
2018-Jun-12 09:58N 43°33' E 007°01'0 0.0
2018-Jun-12 09:25N 43°33' E 007°01'0 0.0
2018-Jun-12 08:58N 43°33' E 007°01'0 0.0
2018-Jun-12 08:16N 43°33' E 007°01'0 0.0
2018-Jun-12 07:58N 43°33' E 007°01'0 0.0
2018-Jun-12 07:28N 43°33' E 007°01'0 0.0
2018-Jun-12 06:58N 43°33' E 007°01'0 0.0
2018-Jun-12 06:28N 43°33' E 007°01'0 0.0
2018-Jun-12 05:58N 43°33' E 007°01'0 0.0
2018-Jun-12 05:28N 43°33' E 007°01'0 0.0
2018-Jun-12 04:58N 43°33' E 007°01'0 0.0
2018-Jun-12 04:28N 43°33' E 007°01'0 0.0
2018-Jun-12 03:58N 43°33' E 007°01'0 0.0
2018-Jun-12 03:22N 43°33' E 007°01'0 0.0
2018-Jun-12 02:49N 43°33' E 007°01'0 0.0
2018-Jun-12 02:19N 43°33' E 007°01'0 0.0
2018-Jun-12 01:49N 43°33' E 007°01'0 0.0
2018-Jun-12 01:19N 43°33' E 007°01'0 0.0
2018-Jun-12 00:49N 43°33' E 007°01'0 0.0
2018-Jun-12 00:22N 43°33' E 007°01'0 0.0
2018-Jun-11 23:49N 43°33' E 007°01'0 0.0
2018-Jun-11 23:22N 43°33' E 007°01'0 0.0
2018-Jun-11 22:52N 43°33' E 007°01'0 0.0
2018-Jun-11 22:22N 43°33' E 007°01'0 0.0
2018-Jun-11 21:52N 43°33' E 007°01'0 0.0
2018-Jun-11 21:22N 43°33' E 007°01'0 0.0
2018-Jun-11 20:52N 43°33' E 007°01'0 0.0
2018-Jun-11 20:18N 43°33' E 007°01'  
Track history (hours):
 
Tides and Currents Weather Stations Pressure Air Temp Water Temp Dewpoint Dewpoint Depression Visibility Wind Speed Wind Dir Waves Ship Positions

Bravado

Last reported at 2018-Jun-21 20:06 UTC. Time now 2018-Jun-24 01:37 UTC.
Position N 43°16' E 006°38'.

Length 45 m; draft 2.8 m.

Type: Pleasure craft. MMSI: 248871000.

Date/timePositionNaut miles runAvg speedWind from/ knotsBaromVisibWave heightAir tempDewpointWater temp
2018-Jun-21 20:06N 43°16' E 006°38'0 0.1
2018-Jun-21 20:00N 43°16' E 006°38'0 0.0
2018-Jun-21 19:30N 43°16' E 006°38'5 0.9
2018-Jun-21 14:11N 43°20' E 006°43'210.2
2018-Jun-21 14:00N 43°21' E 006°45'510.3
2018-Jun-21 13:30N 43°23' E 006°51'510.6
2018-Jun-21 13:00N 43°27' E 006°56'510.1
2018-Jun-21 12:30N 43°31' E 007°00'1 2.5
2018-Jun-21 11:58N 43°33' E 007°01'0 0.0
2018-Jun-21 11:28N 43°33' E 007°01'0 0.0
2018-Jun-21 10:58N 43°33' E 007°01'0 0.0
2018-Jun-21 10:28N 43°33' E 007°01'0 0.0
2018-Jun-21 09:55N 43°33' E 007°01'0 0.0
2018-Jun-21 09:28N 43°33' E 007°01'0 0.0
2018-Jun-21 08:58N 43°33' E 007°01'0 0.0
2018-Jun-21 08:28N 43°33' E 007°01'0 0.0
2018-Jun-21 07:58N 43°33' E 007°01'0 0.0
2018-Jun-21 07:28N 43°33' E 007°01'0 0.0
2018-Jun-21 06:58N 43°33' E 007°01'0 0.1
2018-Jun-21 06:28N 43°33' E 007°01'0 0.0
2018-Jun-21 05:58N 43°33' E 007°01'0 0.0
2018-Jun-21 05:28N 43°33' E 007°01'0 0.0
2018-Jun-21 05:01N 43°33' E 007°01'0 0.0
2018-Jun-21 04:30N 43°33' E 007°01'0 0.0
2018-Jun-21 04:00N 43°33' E 007°01'0 0.0
2018-Jun-21 03:30N 43°33' E 007°01'0 0.0
2018-Jun-21 03:00N 43°33' E 007°01'0 0.0
2018-Jun-21 02:30N 43°33' E 007°01'0 0.0
2018-Jun-21 02:00N 43°33' E 007°01'0 0.0
2018-Jun-21 01:27N 43°33' E 007°01'0 0.0
2018-Jun-21 01:00N 43°33' E 007°01'0 0.0
2018-Jun-21 00:30N 43°33' E 007°01'0 0.0
2018-Jun-21 00:00N 43°33' E 007°01'0 0.0
2018-Jun-20 23:30N 43°33' E 007°01'0 0.0
2018-Jun-20 23:00N 43°33' E 007°01'0 0.0
2018-Jun-20 22:30N 43°33' E 007°01'0 0.0
2018-Jun-20 22:00N 43°33' E 007°01'0 0.0
2018-Jun-20 21:30N 43°33' E 007°01'0 0.0
2018-Jun-20 21:00N 43°33' E 007°01'0 0.0
2018-Jun-20 20:30N 43°33' E 007°01'0 0.0
2018-Jun-20 20:00N 43°33' E 007°01'0 0.0
2018-Jun-20 19:24N 43°33' E 007°01'0 0.0
2018-Jun-20 18:48N 43°33' E 007°01'0 0.0
2018-Jun-20 18:21N 43°33' E 007°01'0 0.0
2018-Jun-20 18:00N 43°33' E 007°01'0 0.0
2018-Jun-20 17:30N 43°33' E 007°01'2 3.2
2018-Jun-20 17:00N 43°32' E 007°03'0 0.1
2018-Jun-20 16:29N 43°32' E 007°03'0 0.0
2018-Jun-20 15:59N 43°32' E 007°03'0 0.0
2018-Jun-20 15:29N 43°32' E 007°03'0 0.0
2018-Jun-20 14:56N 43°32' E 007°03'0 0.0
2018-Jun-20 14:23N 43°32' E 007°03'0 0.0
2018-Jun-20 13:59N 43°32' E 007°03'0 0.0
2018-Jun-20 13:26N 43°32' E 007°03'0 0.1
2018-Jun-20 12:53N 43°32' E 007°03'0 0.0
2018-Jun-20 12:20N 43°32' E 007°03'0 0.0
2018-Jun-20 12:00N 43°32' E 007°03'3 6.0
2018-Jun-20 11:30N 43°32' E 007°07'510.4
2018-Jun-20 11:00N 43°36' E 007°12'7 0.3
2018-Jun-19 11:09N 43°40' E 007°19'511.1
2018-Jun-19 10:41N 43°38' E 007°12'211.0
2018-Jun-19 10:30N 43°36' E 007°10'2 0.1
2018-Jun-18 15:33N 43°35' E 007°08'0 3.8
2018-Jun-18 15:25N 43°36' E 007°08'410.6
2018-Jun-18 15:00N 43°38' E 007°13'6 0.3
2018-Jun-17 17:20N 43°42' E 007°19'0 0.2
2018-Jun-17 17:00N 43°42' E 007°19'3 6.3
2018-Jun-17 16:30N 43°39' E 007°17'510.8
2018-Jun-17 16:00N 43°35' E 007°12'510.6
2018-Jun-17 15:30N 43°31' E 007°07'5 9.7
2018-Jun-17 15:00N 43°30' E 007°00'3 5.4
2018-Jun-17 14:30N 43°31' E 006°57'0 0.0
2018-Jun-17 14:00N 43°31' E 006°57'2 3.4
2018-Jun-17 13:30N 43°30' E 006°58'510.4
2018-Jun-17 13:00N 43°25' E 006°54'510.6
2018-Jun-17 12:30N 43°22' E 006°49'510.4
2018-Jun-17 12:00N 43°19' E 006°43'5 9.3
2018-Jun-17 11:31N 43°16' E 006°38'0 0.1
2018-Jun-17 11:00N 43°16' E 006°38'0 0.0
2018-Jun-17 10:29N 43°16' E 006°38'0 0.0
2018-Jun-17 10:00N 43°16' E 006°38'0 0.0
2018-Jun-17 09:30N 43°16' E 006°38'0 0.1
2018-Jun-17 08:55N 43°16' E 006°38'0 0.1
2018-Jun-17 08:07N 43°16' E 006°38'0 0.0
2018-Jun-17 08:00N 43°16' E 006°38'0 0.0
2018-Jun-17 03:28N 43°16' E 006°38'0 0.1
2018-Jun-17 02:58N 43°16' E 006°38'10 1.2
2018-Jun-16 18:29N 43°22' E 006°49'511.3
2018-Jun-16 18:00N 43°25' E 006°55'511.0
2018-Jun-16 17:30N 43°30' E 006°59'3 5.7
2018-Jun-16 17:00N 43°32' E 007°02'0 0.0
2018-Jun-16 16:30N 43°32' E 007°02'0 0.0
2018-Jun-16 16:00N 43°32' E 007°02'0 0.0
2018-Jun-16 15:30N 43°32' E 007°02'0 0.0
2018-Jun-16 15:00N 43°32' E 007°02'0 0.0
2018-Jun-16 14:30N 43°32' E 007°02'0 0.0
2018-Jun-16 14:00N 43°32' E 007°02'0 0.0
2018-Jun-16 13:30N 43°32' E 007°02'1 1.2
2018-Jun-16 12:59N 43°32' E 007°01'0 0.6
2018-Jun-16 12:29N 43°32' E 007°01'0 0.2
2018-Jun-16 11:57N 43°32' E 007°01'0 0.9
2018-Jun-16 11:31N 43°32' E 007°01'1 1.2
2018-Jun-16 10:55N 43°33' E 007°01'0 0.0
2018-Jun-16 10:28N 43°33' E 007°01'0 0.0
2018-Jun-16 09:55N 43°33' E 007°01'0 0.0
2018-Jun-16 09:25N 43°33' E 007°01'0 0.0
2018-Jun-16 08:55N 43°33' E 007°01'0 0.0
2018-Jun-16 08:25N 43°33' E 007°01'0 0.0
2018-Jun-16 07:58N 43°33' E 007°01'0 0.1
2018-Jun-16 07:28N 43°33' E 007°01'0 0.0
2018-Jun-16 06:58N 43°33' E 007°01'0 0.0
2018-Jun-16 06:28N 43°33' E 007°01'0 0.0
2018-Jun-16 05:58N 43°33' E 007°01'0 0.0
2018-Jun-16 05:28N 43°33' E 007°01'0 0.0
2018-Jun-16 04:58N 43°33' E 007°01'0 0.0
2018-Jun-16 04:28N 43°33' E 007°01'0 0.0
2018-Jun-16 03:58N 43°33' E 007°01'0 0.0
2018-Jun-16 03:28N 43°33' E 007°01'0 0.0
2018-Jun-16 02:58N 43°33' E 007°01'0 0.0
2018-Jun-16 02:28N 43°33' E 007°01'0 0.0
2018-Jun-16 01:58N 43°33' E 007°01'0 0.0
2018-Jun-16 01:28N 43°33' E 007°01'0 0.0
2018-Jun-16 00:58N 43°33' E 007°01'0 0.0
2018-Jun-16 00:28N 43°33' E 007°01'0 0.0
2018-Jun-15 23:58N 43°33' E 007°01'0 0.0
2018-Jun-15 23:28N 43°33' E 007°01'0 0.0
2018-Jun-15 22:58N 43°33' E 007°01'0 0.0
2018-Jun-15 22:28N 43°33' E 007°01'0 0.0
2018-Jun-15 21:58N 43°33' E 007°01'0 0.0
2018-Jun-15 21:28N 43°33' E 007°01'0 0.0
2018-Jun-15 20:58N 43°33' E 007°01'0 0.0
2018-Jun-15 20:28N 43°33' E 007°01'0 0.0
2018-Jun-15 19:58N 43°33' E 007°01'0 0.0
2018-Jun-15 19:22N 43°33' E 007°01'0 0.0
2018-Jun-15 18:49N 43°33' E 007°01'0 0.0
2018-Jun-15 18:28N 43°33' E 007°01'0 0.0
2018-Jun-15 17:58N 43°33' E 007°01'0 0.0
2018-Jun-15 17:22N 43°33' E 007°01'0 0.0
2018-Jun-15 16:55N 43°33' E 007°01'0 0.0
2018-Jun-15 16:28N 43°33' E 007°01'0 0.0
2018-Jun-15 15:58N 43°33' E 007°01'0 0.0
2018-Jun-15 15:28N 43°33' E 007°01'0 0.0
2018-Jun-15 14:58N 43°33' E 007°01'0 0.0
2018-Jun-15 14:28N 43°33' E 007°01'0 0.0
2018-Jun-15 13:52N 43°33' E 007°01'0 0.0
2018-Jun-15 13:28N 43°33' E 007°01'0 0.0
2018-Jun-15 12:55N 43°33' E 007°01'0 0.0
2018-Jun-15 12:22N 43°33' E 007°01'0 0.0
2018-Jun-15 11:52N 43°33' E 007°01'0 0.0
2018-Jun-15 11:25N 43°33' E 007°01'0 0.2
2018-Jun-15 11:00N 43°33' E 007°01'0 0.0
2018-Jun-15 10:30N 43°33' E 007°01'0 0.0
2018-Jun-15 10:00N 43°33' E 007°01'0 0.0
2018-Jun-15 09:30N 43°33' E 007°01'0 0.0
2018-Jun-15 09:00N 43°33' E 007°01'0 0.0
2018-Jun-15 08:30N 43°33' E 007°01'0 0.0
2018-Jun-15 08:00N 43°33' E 007°01'0 0.0
2018-Jun-15 07:30N 43°33' E 007°01'0 0.0
2018-Jun-15 06:59N 43°33' E 007°01'0 0.0
2018-Jun-15 06:30N 43°33' E 007°01'0 0.0
2018-Jun-15 06:00N 43°33' E 007°01'0 0.1
2018-Jun-15 05:30N 43°33' E 007°01'0 0.0
2018-Jun-15 05:00N 43°33' E 007°01'0 0.0
2018-Jun-15 04:30N 43°33' E 007°01'0 0.0
2018-Jun-15 04:00N 43°33' E 007°01'0 0.0
2018-Jun-15 03:30N 43°33' E 007°01'0 0.0
2018-Jun-15 03:00N 43°33' E 007°01'0 0.0
2018-Jun-15 02:30N 43°33' E 007°01'0 0.0
2018-Jun-15 02:00N 43°33' E 007°01'0 0.0
2018-Jun-15 01:30N 43°33' E 007°01'0 0.0
2018-Jun-15 01:00N 43°33' E 007°01'0 0.0
2018-Jun-15 00:30N 43°33' E 007°01'0 0.0
2018-Jun-15 00:00N 43°33' E 007°01'0 0.0
2018-Jun-14 23:30N 43°33' E 007°01'0 0.0
2018-Jun-14 23:00N 43°33' E 007°01'0 0.0
2018-Jun-14 22:30N 43°33' E 007°01'0 0.0
2018-Jun-14 22:00N 43°33' E 007°01'0 0.0
2018-Jun-14 21:30N 43°33' E 007°01'0 0.0
2018-Jun-14 21:00N 43°33' E 007°01'0 0.0
2018-Jun-14 20:30N 43°33' E 007°01'0 0.0
2018-Jun-14 20:00N 43°33' E 007°01'0 0.0
2018-Jun-14 19:30N 43°33' E 007°01'0 0.2
2018-Jun-14 19:01N 43°33' E 007°01'3 6.7
2018-Jun-14 18:30N 43°29' E 007°03'510.6
2018-Jun-14 18:00N 43°32' E 007°09'611.0
2018-Jun-14 17:29N 43°36' E 007°15'5 0.1
2018-Jun-13 02:39N 43°39' E 007°20'210.6
2018-Jun-13 02:26N 43°37' E 007°18'410.3
2018-Jun-13 02:00N 43°35' E 007°13'510.5
2018-Jun-13 01:30N 43°31' E 007°08'510.7
2018-Jun-13 01:00N 43°28' E 007°02'4 0.3
2018-Jun-12 11:28N 43°28' E 006°57'510.5
2018-Jun-12 11:00N 43°32' E 007°00'1 2.8
2018-Jun-12 10:30N 43°33' E 007°01'0 0.0
2018-Jun-12 09:58N 43°33' E 007°01'0 0.0
2018-Jun-12 09:25N 43°33' E 007°01'0 0.0
2018-Jun-12 08:58N 43°33' E 007°01'0 0.0
2018-Jun-12 08:16N 43°33' E 007°01'0 0.0
2018-Jun-12 07:58N 43°33' E 007°01'0 0.0
2018-Jun-12 07:28N 43°33' E 007°01'0 0.0
2018-Jun-12 06:58N 43°33' E 007°01'0 0.0
2018-Jun-12 06:28N 43°33' E 007°01'0 0.0
2018-Jun-12 05:58N 43°33' E 007°01'0 0.0
2018-Jun-12 05:28N 43°33' E 007°01'0 0.0
2018-Jun-12 04:58N 43°33' E 007°01'0 0.0
2018-Jun-12 04:28N 43°33' E 007°01'0 0.0
2018-Jun-12 03:58N 43°33' E 007°01'0 0.0
2018-Jun-12 03:22N 43°33' E 007°01'0 0.0
2018-Jun-12 02:49N 43°33' E 007°01'0 0.0
2018-Jun-12 02:19N 43°33' E 007°01'0 0.0
2018-Jun-12 01:49N 43°33' E 007°01'0 0.0
2018-Jun-12 01:19N 43°33' E 007°01'0 0.0
2018-Jun-12 00:49N 43°33' E 007°01'0 0.0
2018-Jun-12 00:22N 43°33' E 007°01'0 0.0
2018-Jun-11 23:49N 43°33' E 007°01'0 0.0
2018-Jun-11 23:22N 43°33' E 007°01'0 0.0
2018-Jun-11 22:52N 43°33' E 007°01'0 0.0
2018-Jun-11 22:22N 43°33' E 007°01'0 0.0
2018-Jun-11 21:52N 43°33' E 007°01'0 0.0
2018-Jun-11 21:22N 43°33' E 007°01'0 0.0
2018-Jun-11 20:52N 43°33' E 007°01'0 0.0
2018-Jun-11 20:18N 43°33' E 007°01'  

Dump ship's entire track history